^^
Historische Daten
 
Tage Summe für November 18, 2017 Einheit:  Metric    English   Beide
« vorheriger Tag
nächster Tag »
Tage Wochen Monate Jahre Benutzerdefiniert
  Aktuell: Max: Min: Durchschnitt:
Temperatur: 3.6 °C 6.8 °C 3.1 °C 4.7 °C
Tau Punkt: 2.2 °C 3.2 °C 1.3 °C 1.9 °C
Luftfeuchte: 91% 92% 70% 82%
Windgeschwindigkeit: 18.5km/h 55.5km/h 5.6km/h 20.7km/h
Wind Böen: 18.5km/h 55.5km/h - -
WindWSW - - SW
Luftdruck: 1011.7 hPa 1022.6 hPa 1010.7 hPa -
Niederschlag: 2.5 mm      
Historical Graphs
 
 
Tabellendaten für November 18, 2017
Zeit Temperatur Tau Punkt Luftdruck Wind Windgeschwindigkeit Wind Böen Luftfeuchte Regen Rate (Stunde) Conditions
00:02 3.1 °C 1.3 °C 1022.6 hPa SW 9.7 km/h 9.7 km/h 88% 0.0 mm -RA
00:07 3.1 °C 1.3 °C 1022.6 hPa SSW 7.4 km/h 7.4 km/h 88% 0.0 mm -RA
00:12 3.1 °C 1.3 °C 1022.6 hPa SSW 16.7 km/h 16.7 km/h 88% 0.0 mm -RA
00:17 3.2 °C 1.4 °C 1022.6 hPa South 7.4 km/h 7.4 km/h 88% 0.0 mm -RA
00:22 3.2 °C 1.4 °C 1022.2 hPa SSW 8.0 km/h 8.0 km/h 88% 0.0 mm -RA
00:27 3.2 °C 1.4 °C 1022.2 hPa South 11.1 km/h 11.1 km/h 88% 0.0 mm -RA
00:32 3.2 °C 1.4 °C 1022.2 hPa SW 11.1 km/h 11.1 km/h 88% 0.0 mm -RA
00:37 3.2 °C 1.4 °C 1022.2 hPa SSW 7.4 km/h 7.4 km/h 88% 0.0 mm -RA
00:42 3.3 °C 1.5 °C 1022.2 hPa SW 9.3 km/h 9.3 km/h 88% 0.0 mm -RA
00:47 3.3 °C 1.5 °C 1022.2 hPa SSW 13.0 km/h 13.0 km/h 88% 0.0 mm -RA
00:52 3.4 °C 1.6 °C 1022.2 hPa SSW 7.4 km/h 7.4 km/h 88% 0.0 mm -RA
00:57 3.5 °C 1.7 °C 1022.2 hPa SW 8.0 km/h 8.0 km/h 88% 0.0 mm -RA
01:02 3.6 °C 1.7 °C 1022.2 hPa SW 9.3 km/h 9.3 km/h 87% 0.0 mm -RA
01:07 3.7 °C 1.8 °C 1022.2 hPa SW 9.3 km/h 9.3 km/h 87% 0.0 mm -RA
01:12 3.8 °C 1.8 °C 1022.2 hPa SW 9.3 km/h 9.3 km/h 87% 0.0 mm -RA
01:17 3.9 °C 1.8 °C 1021.9 hPa SW 11.1 km/h 11.1 km/h 86% 0.0 mm -RA
01:22 3.9 °C 1.8 °C 1021.9 hPa WSW 11.1 km/h 11.1 km/h 86% 0.0 mm -RA
01:27 4.0 °C 1.9 °C 1021.9 hPa SW 11.1 km/h 11.1 km/h 86% 0.0 mm -RA
01:32 4.1 °C 1.8 °C 1021.9 hPa SW 14.8 km/h 14.8 km/h 85% 0.0 mm -RA
01:37 4.1 °C 1.8 °C 1021.9 hPa SW 16.7 km/h 16.7 km/h 85% 0.0 mm -RA
01:42 4.2 °C 1.9 °C 1021.9 hPa West 18.5 km/h 18.5 km/h 85% 0.0 mm -RA
01:47 4.2 °C 1.7 °C 1021.6 hPa SW 13.0 km/h 13.0 km/h 84% 0.0 mm -RA
01:52 4.2 °C 1.8 °C 1021.6 hPa WSW 16.1 km/h 16.1 km/h 84% 0.0 mm -RA
01:57 4.2 °C 1.8 °C 1021.6 hPa SSW 13.0 km/h 13.0 km/h 84% 0.0 mm -RA
02:02 4.2 °C 1.8 °C 1021.6 hPa SW 11.1 km/h 11.1 km/h 84% 0.0 mm -RA
02:07 4.2 °C 1.8 °C 1021.6 hPa SW 14.8 km/h 14.8 km/h 84% 0.0 mm -RA
02:12 4.2 °C 1.7 °C 1021.6 hPa SSW 9.3 km/h 9.3 km/h 84% 0.0 mm -RA
02:17 4.2 °C 1.9 °C 1021.6 hPa SW 14.8 km/h 14.8 km/h 85% 0.0 mm -RA
02:22 4.2 °C 1.8 °C 1021.6 hPa SSW 14.8 km/h 14.8 km/h 84% 0.0 mm -RA
02:27 4.2 °C 1.9 °C 1021.2 hPa SW 16.7 km/h 16.7 km/h 85% 0.0 mm -RA
02:32 4.2 °C 1.8 °C 1021.6 hPa SSW 16.1 km/h 16.1 km/h 84% 0.0 mm -RA
02:37 4.2 °C 1.8 °C 1021.2 hPa SW 14.8 km/h 14.8 km/h 84% 0.0 mm -RA
02:42 4.2 °C 1.8 °C 1021.2 hPa WSW 14.8 km/h 14.8 km/h 84% 0.0 mm -RA
02:47 4.3 °C 1.8 °C 1021.2 hPa South 13.0 km/h 13.0 km/h 84% 0.0 mm -RA
02:52 4.3 °C 2.0 °C 1021.2 hPa SW 12.9 km/h 12.9 km/h 85% 0.0 mm -RA
02:57 4.3 °C 1.8 °C 1021.2 hPa SW 14.8 km/h 14.8 km/h 84% 0.0 mm -RA
03:02 4.3 °C 1.8 °C 1020.9 hPa SSW 14.8 km/h 14.8 km/h 84% 0.0 mm -RA
03:07 4.3 °C 1.8 °C 1020.9 hPa SW 16.7 km/h 16.7 km/h 84% 0.0 mm -RA
03:12 4.2 °C 1.9 °C 1020.9 hPa WSW 14.8 km/h 14.8 km/h 85% 0.0 mm -RA
03:17 4.2 °C 1.9 °C 1020.9 hPa WSW 14.8 km/h 14.8 km/h 85% 0.0 mm -RA
03:22 4.2 °C 1.9 °C 1020.5 hPa SW 16.7 km/h 16.7 km/h 85% 0.0 mm -RA
03:27 4.2 °C 1.9 °C 1020.5 hPa SW 11.1 km/h 11.1 km/h 85% 0.0 mm -RA
03:32 4.2 °C 1.9 °C 1020.5 hPa SSW 14.8 km/h 14.8 km/h 85% 0.0 mm -RA
03:37 4.1 °C 1.8 °C 1020.2 hPa SW 7.4 km/h 7.4 km/h 85% 0.0 mm -RA
03:42 4.1 °C 1.8 °C 1020.2 hPa SSW 16.7 km/h 16.7 km/h 85% 0.0 mm -RA
03:47 4.1 °C 1.8 °C 1020.2 hPa WSW 11.3 km/h 11.3 km/h 85% 0.0 mm -RA
03:52 4.0 °C 1.7 °C 1020.2 hPa SW 11.3 km/h 11.3 km/h 85% 0.0 mm -RA
03:57 4.0 °C 1.7 °C 1019.9 hPa SW 11.1 km/h 11.1 km/h 85% 0.0 mm -RA
04:02 3.9 °C 1.7 °C 1019.9 hPa SW 9.3 km/h 9.3 km/h 85% 0.0 mm -RA
04:07 3.9 °C 1.6 °C 1019.9 hPa SSW 13.0 km/h 13.0 km/h 85% 0.0 mm -RA
04:13 3.8 °C 1.7 °C 1019.9 hPa SSW 5.6 km/h 5.6 km/h 86% 0.0 mm -RA
04:19 3.8 °C 1.7 °C 1019.9 hPa SW 11.1 km/h 11.1 km/h 86% 0.0 mm -RA
04:21 3.7 °C 1.6 °C 1019.9 hPa SW 9.3 km/h 9.3 km/h 86% 0.0 mm -RA
04:26 3.7 °C 1.6 °C 1019.9 hPa SSW 9.7 km/h 9.7 km/h 86% 0.0 mm -RA
04:33 3.5 °C 1.4 °C 1019.5 hPa SW 11.1 km/h 11.1 km/h 86% 0.0 mm -RA
04:38 3.4 °C 1.3 °C 1019.5 hPa SW 16.7 km/h 16.7 km/h 86% 0.0 mm -RA
04:43 3.4 °C 1.5 °C 1019.5 hPa SW 9.3 km/h 9.3 km/h 87% 0.0 mm -RA
04:48 3.4 °C 1.4 °C 1019.5 hPa SSW 16.7 km/h 16.7 km/h 87% 0.0 mm -RA
04:58 3.3 °C 1.3 °C 1019.5 hPa SSW 14.8 km/h 14.8 km/h 87% 0.0 mm -RA
05:03 3.3 °C 1.3 °C 1019.5 hPa SW 11.3 km/h 11.3 km/h 87% 0.0 mm -RA
05:13 3.2 °C 1.3 °C 1019.2 hPa SSW 14.8 km/h 14.8 km/h 87% 0.0 mm -RA
05:18 3.2 °C 1.3 °C 1019.2 hPa SW 16.7 km/h 16.7 km/h 87% 0.0 mm -RA
05:23 3.2 °C 1.3 °C 1019.2 hPa SW 11.1 km/h 11.1 km/h 87% 0.0 mm -RA
05:28 3.2 °C 1.3 °C 1018.8 hPa SSW 16.1 km/h 16.1 km/h 87% 0.0 mm -RA
05:33 3.2 °C 1.3 °C 1018.8 hPa SSW 18.5 km/h 18.5 km/h 87% 0.0 mm -RA
05:38 3.2 °C 1.3 °C 1018.8 hPa SW 13.0 km/h 13.0 km/h 87% 0.0 mm -RA
05:43 3.3 °C 1.3 °C 1018.8 hPa SSW 22.2 km/h 22.2 km/h 87% 0.0 mm -RA
05:48 3.3 °C 1.4 °C 1018.5 hPa WSW 9.3 km/h 10.9 km/h 87% 0.0 mm -RA
05:53 3.4 °C 1.4 °C 1018.5 hPa SW 14.8 km/h 14.8 km/h 87% 0.0 mm -RA
05:58 3.4 °C 1.5 °C 1018.5 hPa SW 14.8 km/h 14.8 km/h 87% 0.0 mm -RA
06:03 3.5 °C 1.4 °C 1018.5 hPa WNW 27.8 km/h 27.8 km/h 86% 0.0 mm -RA
06:08 3.6 °C 1.4 °C 1018.5 hPa SW 22.2 km/h 22.2 km/h 86% 0.0 mm -RA
06:13 3.7 °C 1.6 °C 1018.5 hPa SSW 18.5 km/h 18.5 km/h 86% 0.0 mm -RA
06:18 3.8 °C 1.7 °C 1018.2 hPa SSW 18.5 km/h 18.5 km/h 86% 0.0 mm -RA
06:23 3.8 °C 1.6 °C 1018.2 hPa WSW 22.2 km/h 22.2 km/h 85% 0.0 mm -RA
06:28 3.8 °C 1.6 °C 1018.2 hPa SSW 25.9 km/h 25.9 km/h 85% 0.0 mm -RA
06:34 3.9 °C 1.6 °C 1018.2 hPa SW 20.4 km/h 20.4 km/h 85% 0.0 mm -RA
06:39 3.9 °C 1.6 °C 1017.8 hPa SSW 11.1 km/h 11.1 km/h 85% 0.0 mm -RA
06:44 3.9 °C 1.7 °C 1017.8 hPa SSW 14.8 km/h 14.8 km/h 85% 0.0 mm -RA
06:49 3.9 °C 1.5 °C 1017.5 hPa SW 18.5 km/h 18.5 km/h 84% 0.0 mm -RA
06:54 4.0 °C 1.6 °C 1017.5 hPa SSW 20.4 km/h 20.4 km/h 84% 0.0 mm -RA
06:59 4.1 °C 1.6 °C 1017.5 hPa South 22.2 km/h 22.2 km/h 84% 0.0 mm -RA
07:04 4.1 °C 1.7 °C 1017.5 hPa SSW 18.5 km/h 18.5 km/h 84% 0.0 mm -RA
07:09 4.2 °C 1.6 °C 1017.5 hPa WSW 13.0 km/h 13.0 km/h 83% 0.0 mm -RA
07:14 4.2 °C 1.6 °C 1017.2 hPa South 20.4 km/h 20.4 km/h 83% 0.0 mm -RA
07:19 4.2 °C 1.6 °C 1017.2 hPa SW 20.4 km/h 20.4 km/h 83% 0.0 mm -RA
07:24 4.3 °C 1.7 °C 1017.2 hPa SW 22.2 km/h 22.2 km/h 83% 0.0 mm -RA
07:29 4.3 °C 1.7 °C 1017.2 hPa SSW 20.4 km/h 20.4 km/h 83% 0.0 mm -RA
07:33 4.3 °C 1.6 °C 1017.2 hPa WSW 18.5 km/h 18.5 km/h 82% 0.0 mm -RA
07:39 4.3 °C 1.6 °C 1017.2 hPa SW 14.5 km/h 14.5 km/h 82% 0.0 mm -RA
07:46 4.4 °C 1.6 °C 1017.2 hPa SW 22.5 km/h 22.5 km/h 82% 0.0 mm -RA
07:51 4.4 °C 1.6 °C 1017.2 hPa WSW 18.5 km/h 18.5 km/h 82% 0.0 mm -RA
07:56 4.4 °C 1.6 °C 1016.8 hPa South 14.8 km/h 14.8 km/h 82% 0.0 mm -RA
08:01 4.4 °C 1.6 °C 1016.8 hPa SW 31.5 km/h 31.5 km/h 82% 0.0 mm -RA
08:06 4.5 °C 1.5 °C 1016.8 hPa SW 20.4 km/h 20.4 km/h 81% 0.0 mm -RA
08:11 4.6 °C 1.6 °C 1016.8 hPa SW 24.1 km/h 24.1 km/h 81% 0.0 mm -RA
08:16 4.6 °C 1.6 °C 1016.8 hPa SW 18.5 km/h 18.5 km/h 81% 0.0 mm -RA
08:21 4.7 °C 1.5 °C 1016.8 hPa WSW 17.7 km/h 17.7 km/h 80% 0.0 mm -RA
08:26 4.7 °C 1.5 °C 1016.8 hPa SW 16.7 km/h 16.7 km/h 80% 0.0 mm -RA
08:31 4.7 °C 1.6 °C 1016.8 hPa SW 14.8 km/h 14.8 km/h 80% 0.0 mm -RA
08:36 4.7 °C 1.6 °C 1016.8 hPa SW 20.4 km/h 20.4 km/h 80% 0.0 mm -RA
08:41 4.8 °C 1.6 °C 1016.8 hPa SSW 19.3 km/h 19.3 km/h 80% 0.0 mm -RA
08:46 4.8 °C 1.7 °C 1016.5 hPa SW 16.7 km/h 16.7 km/h 80% 0.0 mm -RA
08:51 4.8 °C 1.5 °C 1016.5 hPa SW 24.1 km/h 24.1 km/h 79% 0.0 mm -RA
08:56 4.9 °C 1.6 °C 1016.5 hPa SW 24.1 km/h 24.1 km/h 79% 0.0 mm -RA
09:01 4.9 °C 1.6 °C 1016.5 hPa SSW 20.4 km/h 20.4 km/h 79% 0.0 mm -RA
09:06 5.0 °C 1.5 °C 1016.5 hPa SW 24.1 km/h 24.1 km/h 78% 0.0 mm -RA
09:11 5.0 °C 1.5 °C 1016.5 hPa WSW 24.1 km/h 24.1 km/h 78% 0.0 mm -RA
09:16 5.1 °C 1.6 °C 1016.1 hPa SW 29.6 km/h 29.6 km/h 78% 0.0 mm -RA
09:21 5.1 °C 1.6 °C 1016.1 hPa South 25.9 km/h 25.9 km/h 78% 0.0 mm -RA
09:26 5.1 °C 1.6 °C 1016.1 hPa SW 29.6 km/h 29.6 km/h 78% 0.0 mm -RA
09:31 5.1 °C 1.6 °C 1016.1 hPa SSW 19.3 km/h 19.3 km/h 78% 0.0 mm -RA
09:36 5.1 °C 1.6 °C 1016.1 hPa SW 20.4 km/h 20.4 km/h 78% 0.0 mm -RA
09:41 5.1 °C 1.6 °C 1016.1 hPa SSW 29.6 km/h 29.6 km/h 78% 0.0 mm -RA
09:46 5.1 °C 1.6 °C 1015.8 hPa WSW 22.2 km/h 22.2 km/h 78% 0.0 mm -RA
09:51 5.1 °C 1.6 °C 1015.8 hPa WSW 22.5 km/h 22.5 km/h 78% 0.0 mm -RA
09:56 5.1 °C 1.6 °C 1015.8 hPa SW 19.3 km/h 19.3 km/h 78% 0.0 mm -RA
10:01 5.2 °C 1.7 °C 1015.5 hPa WSW 25.7 km/h 25.7 km/h 78% 0.0 mm -RA
10:06 5.2 °C 1.7 °C 1015.5 hPa SSW 24.1 km/h 24.1 km/h 78% 0.0 mm -RA
10:11 5.2 °C 1.7 °C 1015.5 hPa SSW 31.5 km/h 31.5 km/h 78% 0.0 mm -RA
10:16 5.2 °C 1.7 °C 1015.5 hPa SW 18.5 km/h 18.5 km/h 78% 0.0 mm -RA
10:21 5.3 °C 1.6 °C 1015.5 hPa SSW 29.6 km/h 29.6 km/h 77% 0.0 mm -RA
10:26 5.3 °C 1.6 °C 1015.5 hPa SSW 18.5 km/h 18.5 km/h 77% 0.0 mm -RA
10:31 5.3 °C 1.6 °C 1015.1 hPa WSW 24.1 km/h 24.1 km/h 77% 0.0 mm -RA
10:36 5.3 °C 1.6 °C 1015.5 hPa WSW 19.3 km/h 19.3 km/h 77% 0.0 mm -RA
10:41 5.3 °C 1.6 °C 1015.1 hPa West 24.1 km/h 24.1 km/h 77% 0.0 mm -RA
10:47 5.3 °C 1.6 °C 1015.1 hPa SW 18.5 km/h 18.5 km/h 77% 0.0 mm -RA
10:51 5.3 °C 1.6 °C 1015.1 hPa SW 22.5 km/h 22.5 km/h 77% 0.0 mm -RA
10:57 5.4 °C 1.7 °C 1015.1 hPa WSW 22.2 km/h 22.2 km/h 77% 0.0 mm -RA
11:02 5.4 °C 1.7 °C 1015.1 hPa SSW 14.8 km/h 14.8 km/h 77% 0.0 mm -RA
11:06 5.5 °C 1.8 °C 1014.8 hPa SW 22.2 km/h 22.2 km/h 77% 0.0 mm -RA
11:11 5.5 °C 1.6 °C 1014.8 hPa WSW 22.2 km/h 22.2 km/h 76% 0.0 mm -RA
11:16 5.6 °C 1.7 °C 1014.8 hPa WSW 22.2 km/h 22.2 km/h 76% 0.0 mm -RA
11:22 5.6 °C 1.7 °C 1014.8 hPa SW 18.5 km/h 18.5 km/h 76% 0.0 mm -RA
11:27 5.7 °C 1.8 °C 1014.4 hPa WSW 22.2 km/h 22.2 km/h 76% 0.0 mm -RA
11:32 5.7 °C 1.8 °C 1014.4 hPa SW 17.7 km/h 17.7 km/h 76% 0.0 mm -RA
11:37 5.8 °C 1.9 °C 1014.4 hPa SSW 22.2 km/h 22.2 km/h 76% 0.0 mm -RA
11:42 5.9 °C 1.8 °C 1014.4 hPa West 31.5 km/h 31.5 km/h 75% 0.0 mm -RA
11:47 6.0 °C 1.7 °C 1014.1 hPa WSW 22.2 km/h 22.2 km/h 74% 0.0 mm -RA
11:52 6.1 °C 1.8 °C 1014.1 hPa West 27.8 km/h 27.8 km/h 74% 0.0 mm -RA
11:57 6.2 °C 1.7 °C 1013.8 hPa WSW 31.5 km/h 31.5 km/h 73% 0.0 mm -RA
12:02 6.3 °C 1.8 °C 1013.8 hPa WSW 31.5 km/h 31.5 km/h 73% 0.0 mm -RA
12:07 6.3 °C 1.8 °C 1013.4 hPa SSW 29.6 km/h 29.6 km/h 73% 0.0 mm -RA
12:12 6.3 °C 1.8 °C 1013.4 hPa SSW 31.5 km/h 31.5 km/h 73% 0.0 mm -RA
12:17 6.3 °C 1.7 °C 1013.4 hPa WSW 29.6 km/h 29.6 km/h 72% 0.0 mm -RA
12:22 6.4 °C 1.7 °C 1013.1 hPa SW 37.0 km/h 37.0 km/h 72% 0.0 mm -RA
12:27 6.4 °C 1.8 °C 1013.1 hPa SW 35.2 km/h 35.2 km/h 72% 0.0 mm -RA
12:32 6.4 °C 1.8 °C 1012.8 hPa WSW 38.9 km/h 38.9 km/h 72% 0.0 mm -RA
12:37 6.5 °C 1.8 °C 1012.8 hPa WSW 29.6 km/h 29.6 km/h 72% 0.0 mm -RA
12:42 6.6 °C 1.9 °C 1012.8 hPa SW 44.4 km/h 44.4 km/h 72% 0.0 mm -RA
12:47 6.6 °C 1.7 °C 1012.8 hPa WSW 27.8 km/h 27.8 km/h 71% 0.0 mm -RA
12:52 6.6 °C 1.9 °C 1012.4 hPa WSW 24.1 km/h 24.1 km/h 72% 0.0 mm -RA
12:57 6.6 °C 1.7 °C 1012.4 hPa WSW 37.0 km/h 37.0 km/h 71% 0.0 mm -RA
13:03 6.6 °C 1.7 °C 1012.1 hPa SW 31.5 km/h 31.5 km/h 71% 0.0 mm -RA
13:08 6.7 °C 1.8 °C 1012.1 hPa WSW 31.5 km/h 31.5 km/h 71% 0.0 mm -RA
13:13 6.7 °C 2.0 °C 1012.1 hPa WSW 27.4 km/h 27.4 km/h 72% 0.0 mm -RA
13:18 6.8 °C 1.9 °C 1012.1 hPa WSW 25.9 km/h 25.9 km/h 71% 0.0 mm -RA
13:23 6.8 °C 1.9 °C 1012.1 hPa West 29.6 km/h 29.6 km/h 71% 0.0 mm -RA
13:25 6.8 °C 1.9 °C 1012.1 hPa West 31.5 km/h 31.5 km/h 71% 0.0 mm -RA
13:30 6.8 °C 1.9 °C 1011.7 hPa SW 25.9 km/h 25.9 km/h 71% 0.0 mm -RA
13:35 6.8 °C 1.9 °C 1011.7 hPa WSW 31.5 km/h 31.5 km/h 71% 0.0 mm -RA
13:40 6.7 °C 1.6 °C 1011.7 hPa SW 37.0 km/h 37.0 km/h 70% 0.0 mm -RA
13:45 6.7 °C 1.8 °C 1011.7 hPa WSW 31.5 km/h 31.5 km/h 71% 0.0 mm -RA
13:50 6.7 °C 1.8 °C 1011.7 hPa SW 30.6 km/h 30.6 km/h 71% 0.0 mm -RA
13:55 6.7 °C 1.8 °C 1011.7 hPa WSW 27.4 km/h 27.4 km/h 71% 0.0 mm -RA
14:00 6.7 °C 1.8 °C 1011.7 hPa West 20.4 km/h 20.4 km/h 71% 0.0 mm -RA
14:05 6.7 °C 1.8 °C 1011.4 hPa WSW 25.9 km/h 25.9 km/h 71% 0.0 mm -RA
14:10 6.7 °C 1.8 °C 1011.4 hPa WSW 40.7 km/h 40.7 km/h 71% 0.0 mm -RA
14:15 6.7 °C 1.8 °C 1011.4 hPa SW 42.6 km/h 42.6 km/h 71% 0.0 mm -RA
14:20 6.7 °C 2.0 °C 1011.1 hPa SW 24.1 km/h 24.1 km/h 72% 0.0 mm -RA
14:25 6.7 °C 2.0 °C 1011.1 hPa WSW 22.5 km/h 22.5 km/h 72% 0.0 mm -RA
14:30 6.7 °C 2.0 °C 1011.1 hPa WSW 27.8 km/h 27.8 km/h 72% 0.0 mm -RA
14:36 6.7 °C 2.0 °C 1011.1 hPa WSW 35.2 km/h 35.2 km/h 72% 0.0 mm -RA
14:41 6.7 °C 2.0 °C 1011.1 hPa West 25.9 km/h 25.9 km/h 72% 0.0 mm -RA
14:47 6.7 °C 2.3 °C 1011.1 hPa WSW 55.5 km/h 55.5 km/h 74% 0.0 mm -RA
14:52 6.5 °C 2.4 °C 1011.1 hPa WNW 27.8 km/h 27.8 km/h 75% 0.0 mm -RA
14:57 6.4 °C 2.7 °C 1011.1 hPa WSW 20.4 km/h 20.4 km/h 77% 0.0 mm -RA
15:02 6.2 °C 2.7 °C 1011.1 hPa WSW 31.5 km/h 31.5 km/h 78% 0.3 mm -RA
15:07 6.1 °C 2.7 °C 1010.7 hPa WSW 33.3 km/h 33.3 km/h 79% 0.3 mm -RA
15:12 6.1 °C 2.7 °C 1010.7 hPa West 31.5 km/h 31.5 km/h 79% 0.3 mm -RA
15:17 6.0 °C 2.8 °C 1011.1 hPa WSW 25.9 km/h 25.9 km/h 80% 0.3 mm -RA
15:22 6.0 °C 2.8 °C 1010.7 hPa West 25.9 km/h 25.9 km/h 80% 0.3 mm -RA
15:27 5.9 °C 2.9 °C 1011.1 hPa WSW 25.7 km/h 25.7 km/h 81% 0.3 mm -RA
15:32 5.8 °C 3.0 °C 1011.1 hPa West 31.5 km/h 31.5 km/h 82% 0.5 mm -RA
15:37 5.8 °C 3.1 °C 1011.4 hPa West 31.5 km/h 31.5 km/h 83% 0.5 mm -RA
15:42 5.7 °C 3.2 °C 1011.4 hPa WNW 31.5 km/h 31.5 km/h 84% 0.8 mm -RA
15:47 5.5 °C 3.2 °C 1011.7 hPa WNW 31.5 km/h 31.5 km/h 85% 1.0 mm -RA
15:52 5.3 °C 3.2 °C 1011.7 hPa WNW 37.0 km/h 37.0 km/h 86% 1.3 mm -RA
15:57 5.1 °C 2.9 °C 1011.7 hPa West 27.8 km/h 27.8 km/h 86% 1.8 mm -RA
16:02 4.8 °C 2.8 °C 1011.7 hPa West 24.1 km/h 24.1 km/h 87% 1.8 mm -RA
16:07 4.7 °C 2.8 °C 1011.7 hPa WNW 38.9 km/h 38.9 km/h 88% 2.0 mm -RA
16:12 4.5 °C 2.7 °C 1012.1 hPa WNW 31.5 km/h 31.5 km/h 88% 2.3 mm -RA
16:17 4.3 °C 2.7 °C 1012.1 hPa West 29.6 km/h 29.6 km/h 89% 2.3 mm -RA
16:18 4.3 °C 2.7 °C 1012.1 hPa WNW 27.8 km/h 27.8 km/h 89% 2.3 mm -RA
16:23 4.2 °C 2.5 °C 1012.1 hPa WNW 29.6 km/h 29.6 km/h 89% 2.3 mm -RA
16:28 4.1 °C 2.4 °C 1011.7 hPa WSW 20.4 km/h 20.4 km/h 89% 2.3 mm -RA
16:33 4.0 °C 2.3 °C 1011.7 hPa WNW 22.2 km/h 22.2 km/h 89% 2.3 mm -RA
16:38 3.9 °C 2.4 °C 1011.7 hPa WNW 20.4 km/h 20.4 km/h 90% 2.0 mm -RA
16:43 3.9 °C 2.4 °C 1012.1 hPa WSW 27.8 km/h 27.8 km/h 90% 1.8 mm -RA
16:48 3.9 °C 2.4 °C 1012.1 hPa WSW 14.8 km/h 14.8 km/h 90% 1.5 mm -RA
16:53 3.8 °C 2.3 °C 1011.7 hPa SW 14.8 km/h 14.8 km/h 90% 1.3 mm -RA
16:58 3.7 °C 2.2 °C 1011.7 hPa WSW 16.7 km/h 16.7 km/h 90% 0.8 mm -RA
17:03 3.7 °C 2.3 °C 1012.1 hPa SW 16.7 km/h 16.7 km/h 91% 0.5 mm -RA
17:08 3.7 °C 2.3 °C 1012.1 hPa WSW 18.5 km/h 18.5 km/h 91% 0.5 mm -RA
17:13 3.7 °C 2.3 °C 1012.1 hPa WSW 18.5 km/h 18.5 km/h 91% 0.3 mm -RA
17:18 3.6 °C 2.3 °C 1012.1 hPa WSW 18.5 km/h 18.5 km/h 91% 0.3 mm -RA
17:28 3.7 °C 2.3 °C 1011.7 hPa WSW 20.4 km/h 20.4 km/h 91% 0.0 mm -RA
17:33 3.7 °C 2.5 °C 1011.7 hPa WSW 18.5 km/h 18.5 km/h 92% 0.0 mm -RA
17:38 3.7 °C 2.6 °C 1011.7 hPa WSW 18.5 km/h 18.5 km/h 92% 0.0 mm -RA
17:43 3.7 °C 2.6 °C 1011.7 hPa WSW 22.2 km/h 22.2 km/h 92% 0.0 mm -RA
17:48 3.7 °C 2.4 °C 1012.1 hPa WSW 22.5 km/h 22.5 km/h 91% 0.0 mm -RA
17:53 3.7 °C 2.3 °C 1012.1 hPa WSW 18.5 km/h 18.5 km/h 91% 0.0 mm -RA
17:58 3.7 °C 2.3 °C 1011.7 hPa SW 24.1 km/h 24.1 km/h 91% 0.0 mm -RA
18:03 3.7 °C 2.3 °C 1011.7 hPa WSW 20.4 km/h 20.4 km/h 91% 0.0 mm -RA
18:08 3.6 °C 2.3 °C 1011.7 hPa WSW 16.7 km/h 16.7 km/h 91% 0.0 mm -RA
18:13 3.6 °C 2.3 °C 1011.7 hPa SW 18.5 km/h 18.5 km/h 91% 0.0 mm -RA
18:18 3.6 °C 2.1 °C 1011.7 hPa SW 14.8 km/h 14.8 km/h 90% 0.0 mm -RA
18:23 3.6 °C 2.1 °C 1011.7 hPa West 11.3 km/h 11.3 km/h 90% 0.0 mm -RA
18:28 3.6 °C 2.1 °C 1011.7 hPa WSW 19.3 km/h 19.3 km/h 90% 0.0 mm -RA
18:34 3.6 °C 2.1 °C 1011.7 hPa West 14.8 km/h 14.8 km/h 90% 0.0 mm -RA
18:39 3.6 °C 2.1 °C 1011.7 hPa WSW 14.8 km/h 14.8 km/h 90% 0.0 mm -RA
18:43 3.6 °C 2.2 °C 1011.7 hPa SW 18.5 km/h 18.5 km/h 91% 0.0 mm -RA
18:44 3.6 °C 2.2 °C 1011.7 hPa WSW 18.5 km/h 18.5 km/h 91% 0.0 mm -RA
BSWETTER.DE
Compliments of Weather Underground - 2.75 mb
Besucherstatistik
Besucher gesamt: 904.007
Besucher heute: 1.163
Besucher gestern: 1.330
Besucher Ø : 1.037,22
gerade online: 13
max. online: 119
Seitenaufrufe heute: 16.212
Seitenaufrufe diese Seite: 1.972
Seitenaufrufe gesamt: 3.063.442
counter Statistiken